createdAt,value
2019-04-30T00:04:37.527Z,6.63
2019-04-30T00:09:36.231Z,6.80
2019-04-30T00:14:41.255Z,6.67
2019-04-30T00:19:42.918Z,6.10
2019-04-30T00:24:49.678Z,6.40
2019-04-30T00:29:49.439Z,5.43
2019-04-30T00:34:51.862Z,5.70
2019-04-30T00:39:55.587Z,5.67
2019-04-30T00:44:59.557Z,5.60
2019-04-30T00:50:02.095Z,6.07
2019-04-30T00:55:08.896Z,6.07
2019-04-30T01:00:10.853Z,6.43
2019-04-30T01:05:15.759Z,6.80
2019-04-30T01:10:19.578Z,6.57
2019-04-30T01:15:22.076Z,7.70
2019-04-30T01:20:31.108Z,7.53
2019-04-30T01:25:29.771Z,7.97
2019-04-30T01:30:31.953Z,8.93
2019-04-30T01:35:34.119Z,10.13
2019-04-30T01:40:38.390Z,10.83
2019-04-30T01:45:40.804Z,11.97
2019-04-30T01:50:42.985Z,12.87
2019-04-30T01:56:15.573Z,12.97
2019-04-30T02:01:19.931Z,12.90
2019-04-30T02:06:22.247Z,14.67
2019-04-30T02:11:24.286Z,14.80
2019-04-30T02:16:28.783Z,16.87
2019-04-30T02:21:33.211Z,18.10
2019-04-30T02:26:35.300Z,19.57
2019-04-30T02:31:40.599Z,20.20
2019-04-30T02:36:49.936Z,20.23
2019-04-30T02:41:52.848Z,19.70
2019-04-30T02:47:00.117Z,20.60
2019-04-30T02:52:03.331Z,21.53
2019-04-30T02:57:12.354Z,21.50
2019-04-30T03:02:14.250Z,20.67
2019-04-30T03:07:16.272Z,21.10
2019-04-30T03:12:21.382Z,21.07
2019-04-30T03:17:30.246Z,20.20
2019-04-30T03:22:40.022Z,22.00
2019-04-30T03:27:42.536Z,20.43
2019-04-30T03:32:50.773Z,22.90
2019-04-30T03:37:49.646Z,20.97
2019-04-30T03:42:51.827Z,22.20
2019-04-30T03:47:53.807Z,22.17
2019-04-30T03:52:55.790Z,21.23
2019-04-30T03:58:00.473Z,21.60
2019-04-30T04:03:02.632Z,21.43
2019-04-30T04:08:30.149Z,20.63
2019-04-30T04:13:33.152Z,21.07
2019-04-30T04:18:35.205Z,20.60
2019-04-30T04:23:39.906Z,21.17
2019-04-30T04:28:43.481Z,20.83
2019-04-30T04:33:44.950Z,21.40
2019-04-30T04:38:50.716Z,20.47
2019-04-30T04:43:55.345Z,21.20
2019-04-30T04:48:59.718Z,21.67
2019-04-30T04:54:03.220Z,21.77
2019-04-30T04:59:05.659Z,21.47
2019-04-30T05:04:11.474Z,23.20
2019-04-30T05:09:11.738Z,23.70
2019-04-30T05:14:18.598Z,22.23
2019-04-30T05:19:20.728Z,21.57
2019-04-30T05:24:22.870Z,22.27
2019-04-30T05:29:24.862Z,22.13
2019-04-30T05:34:28.709Z,23.00
2019-04-30T05:39:30.735Z,24.40
2019-04-30T05:44:32.681Z,22.80
2019-04-30T05:49:34.526Z,22.57
2019-04-30T05:54:39.044Z,22.50
2019-04-30T05:59:44.155Z,24.07
2019-04-30T06:04:48.870Z,22.90
2019-04-30T06:10:06.181Z,23.80
2019-04-30T06:15:39.106Z,25.53
2019-04-30T06:20:41.467Z,24.27
2019-04-30T06:25:56.417Z,24.23
2019-04-30T06:30:49.290Z,25.57
2019-04-30T06:35:52.207Z,25.33
2019-04-30T06:40:54.216Z,25.57
2019-04-30T06:45:56.279Z,24.23
2019-04-30T06:50:59.211Z,24.40
2019-04-30T06:56:01.350Z,25.07
2019-04-30T07:01:03.314Z,26.67
2019-04-30T07:06:05.791Z,26.37
2019-04-30T07:11:26.193Z,25.63
2019-04-30T07:16:30.407Z,23.57
2019-04-30T07:21:36.509Z,23.50
2019-04-30T07:26:38.952Z,21.67
2019-04-30T07:31:43.780Z,22.47
2019-04-30T07:36:51.002Z,21.50
2019-04-30T07:41:49.844Z,20.93
2019-04-30T07:46:52.065Z,20.67
2019-04-30T07:51:54.826Z,18.50
2019-04-30T07:57:01.220Z,19.93
2019-04-30T08:02:10.906Z,18.90
2019-04-30T08:07:07.062Z,18.77
2019-04-30T08:12:09.724Z,18.80
2019-04-30T08:17:12.626Z,18.63
2019-04-30T08:22:19.741Z,17.63
2019-04-30T08:27:21.967Z,19.20
2019-04-30T08:32:23.931Z,20.13
2019-04-30T08:37:25.853Z,19.97
2019-04-30T08:42:35.263Z,18.23
2019-04-30T08:47:39.302Z,19.67
2019-04-30T08:52:41.404Z,17.93
2019-04-30T08:57:43.423Z,19.13
2019-04-30T09:02:45.444Z,19.03
2019-04-30T09:07:48.647Z,18.70
2019-04-30T09:12:51.956Z,19.67
2019-04-30T09:18:03.079Z,18.70
2019-04-30T09:22:59.512Z,18.77
2019-04-30T09:28:04.405Z,18.97
2019-04-30T09:33:05.906Z,19.00
2019-04-30T09:38:09.188Z,18.80
2019-04-30T09:43:11.981Z,17.80
2019-04-30T09:48:13.974Z,18.23
2019-04-30T09:53:16.269Z,17.53
2019-04-30T09:58:21.165Z,17.47
2019-04-30T10:03:23.477Z,17.73
2019-04-30T10:08:26.596Z,19.63
2019-04-30T10:13:28.658Z,19.57
2019-04-30T10:18:30.698Z,17.97
2019-04-30T10:23:34.131Z,17.20
2019-04-30T10:28:39.784Z,17.53
2019-04-30T10:33:41.712Z,18.63
2019-04-30T10:38:45.055Z,17.17
2019-04-30T10:43:49.196Z,18.10
2019-04-30T10:48:51.277Z,18.77
2019-04-30T10:53:53.580Z,17.90
2019-04-30T10:58:55.557Z,18.47
2019-04-30T11:03:57.585Z,19.80
2019-04-30T11:08:59.569Z,19.43
2019-04-30T11:14:01.631Z,19.87
2019-04-30T11:19:04.003Z,18.63
2019-04-30T11:24:12.663Z,19.13
2019-04-30T11:29:19.181Z,18.70
2019-04-30T11:34:21.394Z,19.33
2019-04-30T11:39:23.449Z,19.30
2019-04-30T11:44:31.018Z,19.70
2019-04-30T11:49:29.247Z,19.13
2019-04-30T11:54:31.748Z,20.37
2019-04-30T11:59:33.747Z,19.70
2019-04-30T12:04:35.759Z,19.83
2019-04-30T12:09:54.781Z,19.33
2019-04-30T12:15:02.518Z,18.83
2019-04-30T12:20:04.256Z,21.10
2019-04-30T12:25:06.536Z,20.30
2019-04-30T12:30:09.894Z,19.70
2019-04-30T12:35:12.440Z,19.57
2019-04-30T12:40:26.641Z,19.27
2019-04-30T12:45:19.468Z,19.27
2019-04-30T12:50:39.199Z,18.20
2019-04-30T12:55:52.696Z,19.13
2019-04-30T13:00:54.834Z,18.17
2019-04-30T13:05:57.518Z,17.87
2019-04-30T13:11:02.088Z,17.23
2019-04-30T13:16:04.492Z,17.00
2019-04-30T13:21:09.415Z,16.13
2019-04-30T13:26:13.395Z,17.80
2019-04-30T13:31:19.366Z,17.17
2019-04-30T13:36:21.390Z,17.27
2019-04-30T13:41:50.979Z,16.13
2019-04-30T13:46:53.152Z,17.17
2019-04-30T13:51:55.145Z,16.33
2019-04-30T13:56:59.052Z,17.57
2019-04-30T14:02:01.214Z,16.60
2019-04-30T14:07:25.340Z,17.23
2019-04-30T14:12:28.702Z,18.07
2019-04-30T14:17:32.110Z,17.17
2019-04-30T14:22:33.988Z,17.57
2019-04-30T14:27:48.524Z,17.90
2019-04-30T14:32:39.968Z,17.37
2019-04-30T14:37:41.988Z,16.67
2019-04-30T14:42:51.070Z,16.97
2019-04-30T14:48:08.620Z,17.53
2019-04-30T14:53:35.951Z,16.90
2019-04-30T14:59:12.712Z,17.63
2019-04-30T15:04:14.821Z,17.77
2019-04-30T15:09:17.130Z,17.77
2019-04-30T15:14:19.258Z,16.87
2019-04-30T15:19:21.231Z,17.90
2019-04-30T15:24:29.321Z,17.40
2019-04-30T15:29:31.714Z,17.50
2019-04-30T15:34:33.649Z,17.90
2019-04-30T15:39:39.326Z,16.83
2019-04-30T15:44:45.336Z,18.37
2019-04-30T15:49:45.756Z,17.17
2019-04-30T15:54:49.070Z,16.23
2019-04-30T15:59:51.150Z,16.70
2019-04-30T16:05:12.779Z,17.00
2019-04-30T16:10:40.198Z,17.10
2019-04-30T16:15:45.029Z,16.30
2019-04-30T16:20:48.102Z,16.77
2019-04-30T16:25:51.029Z,17.27
2019-04-30T16:30:53.006Z,17.17
2019-04-30T16:35:55.362Z,17.57
2019-04-30T16:40:58.476Z,16.50
2019-04-30T16:46:01.203Z,17.57
2019-04-30T16:51:03.172Z,17.53
2019-04-30T16:56:05.280Z,16.83
2019-04-30T17:01:09.191Z,18.50
2019-04-30T17:06:15.729Z,16.33
2019-04-30T17:11:35.905Z,17.60
2019-04-30T17:16:39.132Z,15.60
2019-04-30T17:21:41.244Z,17.40
2019-04-30T17:26:43.396Z,17.90
2019-04-30T17:31:46.557Z,16.17
2019-04-30T17:36:49.621Z,16.40
2019-04-30T17:41:51.991Z,17.30
2019-04-30T17:46:55.856Z,17.53
2019-04-30T17:51:59.468Z,15.50
2019-04-30T17:57:01.492Z,16.83
2019-04-30T18:02:05.549Z,15.13
2019-04-30T18:07:09.942Z,17.00
2019-04-30T18:12:12.089Z,16.17
2019-04-30T18:17:14.023Z,17.33
2019-04-30T18:22:40.003Z,15.37
2019-04-30T18:27:49.519Z,16.67
2019-04-30T18:32:51.563Z,16.23
2019-04-30T18:37:53.500Z,16.30
2019-04-30T18:42:55.458Z,16.10
2019-04-30T18:47:59.540Z,16.17
2019-04-30T18:53:04.699Z,16.60
2019-04-30T18:58:08.690Z,15.90
2019-04-30T19:03:10.794Z,16.10
2019-04-30T19:08:26.207Z,17.10
2019-04-30T19:13:41.512Z,16.73
2019-04-30T19:18:56.283Z,17.63
2019-04-30T19:23:58.706Z,17.57
2019-04-30T19:29:00.732Z,15.97
2019-04-30T19:34:03.427Z,18.13
2019-04-30T19:39:08.675Z,17.93
2019-04-30T19:44:11.041Z,18.00
2019-04-30T19:49:13.152Z,16.73
2019-04-30T19:54:15.190Z,17.57
2019-04-30T19:59:19.251Z,17.30
2019-04-30T20:04:32.645Z,17.10
2019-04-30T20:09:25.369Z,17.17
2019-04-30T20:14:29.983Z,16.57
2019-04-30T20:19:33.146Z,17.80
2019-04-30T20:24:35.369Z,17.97
2019-04-30T20:29:37.230Z,17.13
2019-04-30T20:34:39.317Z,17.33
2019-04-30T20:40:08.701Z,15.30
2019-04-30T20:45:11.098Z,15.33
2019-04-30T20:50:13.271Z,15.47
2019-04-30T20:55:15.310Z,15.10
2019-04-30T21:00:17.320Z,16.07
2019-04-30T21:05:20.458Z,14.77
2019-04-30T21:10:22.437Z,15.13
2019-04-30T21:15:24.698Z,14.80
2019-04-30T21:20:28.868Z,14.43
2019-04-30T21:25:31.186Z,14.70
2019-04-30T21:30:33.311Z,14.33
2019-04-30T21:35:41.807Z,13.87
2019-04-30T21:40:45.664Z,14.17
2019-04-30T21:45:49.376Z,15.60
2019-04-30T21:50:53.251Z,14.23
2019-04-30T21:55:57.248Z,15.13
2019-04-30T22:01:21.235Z,14.63
2019-04-30T22:06:25.578Z,14.50
2019-04-30T22:11:29.604Z,15.37
2019-04-30T22:16:32.130Z,14.93
2019-04-30T22:21:34.213Z,14.63
2019-04-30T22:26:36.342Z,15.43
2019-04-30T22:31:39.601Z,15.73
2019-04-30T22:36:49.087Z,16.13
2019-04-30T22:42:01.384Z,15.40
2019-04-30T22:47:03.696Z,15.73
2019-04-30T22:52:05.718Z,16.63
2019-04-30T22:57:09.169Z,16.30
2019-04-30T23:02:22.487Z,16.40
2019-04-30T23:07:26.227Z,16.80
2019-04-30T23:12:28.253Z,16.90
2019-04-30T23:17:30.300Z,18.00
2019-04-30T23:22:34.290Z,18.67
2019-04-30T23:27:36.440Z,18.57
2019-04-30T23:32:38.380Z,23.93
2019-04-30T23:37:43.735Z,22.73
2019-04-30T23:42:45.771Z,21.67
2019-04-30T23:47:48.064Z,26.33
2019-04-30T23:52:50.122Z,25.70
2019-04-30T23:57:52.334Z,20.60
